AVA092 TBPB-TNCC
Flight info
| Callsign | AVA092 |
|---|---|
| Flight time | N/A |
| Altitude | 25000 |
| Route | ANADA DCT RAYAS DCT SCAPA SCAPA1B |
| Aircraft | AT75/M-SDFGIRY/S |
Departure
| Time | 2026-04-27 20:00 |
|---|---|
| Airport | Grantley Adams International Airport (TBPB) |
Arrival
| Time | N/A |
|---|---|
| Airport | Hato International Airport (TNCC) |
| Time | Latitude | Longitude | Altitude | Speed | Heading |
|---|---|---|---|---|---|
| 2026-04-27 19:31 | 13.07859 | -59.48815 | 177 ft | 0 kts | 346° |
| 2026-04-27 19:49 | 13.07857 | -59.48815 | 177 ft | 1 kts | 346° |
| 2026-04-27 19:50 | 13.07844 | -59.48811 | 177 ft | 3 kts | 346° |
| 2026-04-27 19:50 | 13.07826 | -59.48806 | 177 ft | 3 kts | 346° |
| 2026-04-27 19:50 | 13.07806 | -59.48801 | 177 ft | 3 kts | 346° |
| 2026-04-27 19:50 | 13.07786 | -59.48796 | 177 ft | 3 kts | 346° |
| 2026-04-27 19:51 | 13.07766 | -59.48791 | 177 ft | 3 kts | 346° |
| 2026-04-27 19:51 | 13.07746 | -59.48786 | 177 ft | 3 kts | 346° |
| 2026-04-27 19:51 | 13.07745 | -59.48786 | 177 ft | 0 kts | 347° |
| 2026-04-27 19:51 | 13.07760 | -59.48806 | 177 ft | 5 kts | 266° |
| 2026-04-27 19:52 | 13.07728 | -59.48844 | 177 ft | 9 kts | 238° |
| 2026-04-27 19:52 | 13.07709 | -59.48887 | 177 ft | 11 kts | 254° |
| 2026-04-27 19:52 | 13.07679 | -59.49006 | 177 ft | 15 kts | 255° |
| 2026-04-27 19:52 | 13.07655 | -59.49107 | 177 ft | 15 kts | 255° |
| 2026-04-27 19:53 | 13.07604 | -59.49317 | 177 ft | 15 kts | 255° |
| 2026-04-27 19:53 | 13.07578 | -59.49423 | 177 ft | 15 kts | 255° |
| 2026-04-27 19:53 | 13.07551 | -59.49530 | 177 ft | 15 kts | 255° |
| 2026-04-27 19:54 | 13.07525 | -59.49637 | 177 ft | 15 kts | 254° |
| 2026-04-27 19:54 | 13.07499 | -59.49743 | 177 ft | 16 kts | 257° |
| 2026-04-27 19:54 | 13.07473 | -59.49850 | 177 ft | 16 kts | 256° |
| 2026-04-27 19:54 | 13.07447 | -59.49958 | 177 ft | 16 kts | 254° |
| 2026-04-27 19:55 | 13.07419 | -59.50066 | 177 ft | 16 kts | 255° |
| 2026-04-27 19:55 | 13.07394 | -59.50170 | 177 ft | 14 kts | 257° |
| 2026-04-27 19:55 | 13.07370 | -59.50272 | 177 ft | 15 kts | 256° |
| 2026-04-27 19:55 | 13.07345 | -59.50378 | 177 ft | 16 kts | 257° |
| 2026-04-27 19:56 | 13.07316 | -59.50491 | 177 ft | 17 kts | 255° |
| 2026-04-27 19:56 | 13.07287 | -59.50605 | 177 ft | 16 kts | 259° |
| 2026-04-27 19:56 | 13.07264 | -59.50694 | 177 ft | 7 kts | 243° |
| 2026-04-27 19:56 | 13.07207 | -59.50722 | 177 ft | 11 kts | 178° |
| 2026-04-27 19:57 | 13.07171 | -59.50715 | 177 ft | 6 kts | 166° |
| 2026-04-27 19:57 | 13.07163 | -59.50713 | 177 ft | 0 kts | 167° |
| 2026-04-27 19:57 | 13.07152 | -59.50711 | 177 ft | 0 kts | 167° |
| 2026-04-27 19:58 | 13.07152 | -59.50710 | 177 ft | 0 kts | 167° |
| 2026-04-27 19:58 | 13.07149 | -59.50710 | 177 ft | 5 kts | 167° |
| 2026-04-27 19:58 | 13.07113 | -59.50686 | 177 ft | 6 kts | 116° |
| 2026-04-27 19:58 | 13.07110 | -59.50660 | 177 ft | 0 kts | 83° |
| 2026-04-27 19:59 | 13.07128 | -59.50579 | 177 ft | 45 kts | 73° |
| 2026-04-27 19:59 | 13.07261 | -59.50034 | 177 ft | 109 kts | 77° |
| 2026-04-27 19:59 | 13.07487 | -59.49126 | 227 ft | 146 kts | 75° |
| 2026-04-27 19:59 | 13.07761 | -59.48124 | 752 ft | 140 kts | 72° |
| 2026-04-27 20:00 | 13.08079 | -59.47240 | 1461 ft | 127 kts | 68° |
| 2026-04-27 20:00 | 13.08331 | -59.46310 | 1766 ft | 150 kts | 83° |
| 2026-04-27 20:00 | 13.08211 | -59.45166 | 2033 ft | 167 kts | 107° |
| 2026-04-27 20:00 | 13.07658 | -59.44263 | 2926 ft | 138 kts | 138° |
| 2026-04-27 20:01 | 13.06791 | -59.43881 | 3461 ft | 146 kts | 169° |
| 2026-04-27 20:01 | 13.05650 | -59.43955 | 3511 ft | 180 kts | 194° |
| 2026-04-27 20:01 | 13.04561 | -59.44522 | 4144 ft | 170 kts | 223° |
| 2026-04-27 20:01 | 13.03980 | -59.45535 | 4756 ft | 163 kts | 252° |
| 2026-04-27 20:02 | 13.03763 | -59.46628 | 5410 ft | 156 kts | 269° |
| 2026-04-27 20:02 | 13.03972 | -59.47817 | 5396 ft | 188 kts | 285° |
| 2026-04-27 20:02 | 13.04502 | -59.49045 | 5785 ft | 194 kts | 300° |
| 2026-04-27 20:02 | 13.05368 | -59.50213 | 5802 ft | 215 kts | 307° |
| 2026-04-27 20:03 | 13.06391 | -59.51415 | 5813 ft | 231 kts | 310° |
| 2026-04-27 20:03 | 13.07464 | -59.52705 | 5819 ft | 242 kts | 308° |
| 2026-04-27 20:03 | 13.08486 | -59.54123 | 5824 ft | 252 kts | 304° |
| 2026-04-27 20:03 | 13.09441 | -59.55647 | 5828 ft | 261 kts | 301° |
| 2026-04-27 20:04 | 13.10355 | -59.57275 | 5964 ft | 263 kts | 298° |
| 2026-04-27 20:04 | 13.11199 | -59.58902 | 6449 ft | 251 kts | 296° |
| 2026-04-27 20:04 | 13.11977 | -59.60469 | 6943 ft | 241 kts | 294° |
| 2026-04-27 20:04 | 13.12694 | -59.61963 | 7429 ft | 231 kts | 294° |
| 2026-04-27 20:05 | 13.13375 | -59.63422 | 7921 ft | 223 kts | 293° |
| 2026-04-27 20:05 | 13.14026 | -59.64844 | 8416 ft | 216 kts | 292° |
| 2026-04-27 20:05 | 13.14647 | -59.66227 | 8911 ft | 211 kts | 292° |
| 2026-04-27 20:05 | 13.15246 | -59.67581 | 9405 ft | 206 kts | 292° |
| 2026-04-27 20:06 | 13.15830 | -59.68917 | 9903 ft | 203 kts | 291° |
| 2026-04-27 20:06 | 13.16398 | -59.70230 | 10399 ft | 199 kts | 291° |
| 2026-04-27 20:06 | 13.16950 | -59.71511 | 10891 ft | 197 kts | 291° |
| 2026-04-27 20:06 | 13.17499 | -59.72792 | 11388 ft | 195 kts | 291° |
| 2026-04-27 20:07 | 13.18040 | -59.74060 | 11886 ft | 193 kts | 291° |
| 2026-04-27 20:07 | 13.18574 | -59.75314 | 12382 ft | 191 kts | 291° |
| 2026-04-27 20:07 | 13.19098 | -59.76544 | 12875 ft | 189 kts | 291° |
| 2026-04-27 20:07 | 13.19622 | -59.77777 | 13372 ft | 187 kts | 291° |
| 2026-04-27 20:08 | 13.20141 | -59.79000 | 13871 ft | 185 kts | 291° |
| 2026-04-27 20:08 | 13.20654 | -59.80208 | 14368 ft | 183 kts | 290° |
| 2026-04-27 20:08 | 13.21154 | -59.81387 | 14859 ft | 181 kts | 290° |
| 2026-04-27 20:08 | 13.21653 | -59.82562 | 15354 ft | 179 kts | 290° |
| 2026-04-27 20:09 | 13.22147 | -59.83727 | 15850 ft | 176 kts | 290° |
| 2026-04-27 20:09 | 13.22637 | -59.84885 | 16296 ft | 177 kts | 290° |
| 2026-04-27 20:09 | 13.23131 | -59.86051 | 16680 ft | 179 kts | 290° |
| 2026-04-27 20:09 | 13.23625 | -59.87218 | 17055 ft | 181 kts | 290° |
| 2026-04-27 20:10 | 13.24130 | -59.88410 | 17433 ft | 182 kts | 290° |
| 2026-04-27 20:10 | 13.24637 | -59.89605 | 17809 ft | 183 kts | 290° |
| 2026-04-27 20:10 | 13.25147 | -59.90805 | 18185 ft | 183 kts | 290° |
| 2026-04-27 20:10 | 13.25657 | -59.92008 | 18561 ft | 183 kts | 290° |
| 2026-04-27 20:11 | 13.26164 | -59.93203 | 18934 ft | 182 kts | 290° |
| 2026-04-27 20:11 | 13.26664 | -59.94381 | 19303 ft | 181 kts | 290° |
| 2026-04-27 20:11 | 13.27166 | -59.95565 | 19675 ft | 180 kts | 290° |
| 2026-04-27 20:11 | 13.27663 | -59.96735 | 20046 ft | 178 kts | 290° |
| 2026-04-27 20:12 | 13.28154 | -59.97894 | 20417 ft | 175 kts | 290° |
| 2026-04-27 20:12 | 13.28630 | -59.99019 | 20781 ft | 172 kts | 290° |
| 2026-04-27 20:12 | 13.29104 | -60.00136 | 21147 ft | 169 kts | 290° |
| 2026-04-27 20:12 | 13.29574 | -60.01247 | 21457 ft | 169 kts | 290° |
| 2026-04-27 20:13 | 13.30044 | -60.02362 | 21719 ft | 171 kts | 290° |
| 2026-04-27 20:13 | 13.30521 | -60.03491 | 21974 ft | 173 kts | 290° |
| 2026-04-27 20:13 | 13.30999 | -60.04619 | 22225 ft | 174 kts | 290° |
| 2026-04-27 20:13 | 13.31485 | -60.05767 | 22477 ft | 175 kts | 290° |
| 2026-04-27 20:14 | 13.31973 | -60.06921 | 22729 ft | 176 kts | 290° |
| 2026-04-27 20:14 | 13.32464 | -60.08080 | 22980 ft | 177 kts | 290° |
| 2026-04-27 20:14 | 13.32948 | -60.09224 | 23226 ft | 177 kts | 290° |
| 2026-04-27 20:14 | 13.33438 | -60.10380 | 23475 ft | 176 kts | 290° |
| 2026-04-27 20:15 | 13.33928 | -60.11536 | 23724 ft | 176 kts | 290° |
| 2026-04-27 20:15 | 13.34416 | -60.12690 | 23973 ft | 175 kts | 290° |
| 2026-04-27 20:15 | 13.34899 | -60.13831 | 24220 ft | 174 kts | 290° |
| 2026-04-27 20:15 | 13.35378 | -60.14964 | 24466 ft | 172 kts | 290° |
| 2026-04-27 20:16 | 13.35853 | -60.16087 | 24712 ft | 170 kts | 290° |
| 2026-04-27 20:16 | 13.36318 | -60.17186 | 24937 ft | 170 kts | 290° |
| 2026-04-27 20:16 | 13.36796 | -60.18321 | 25017 ft | 177 kts | 290° |
| 2026-04-27 20:16 | 13.37300 | -60.19520 | 25022 ft | 188 kts | 290° |
| 2026-04-27 20:17 | 13.37835 | -60.20789 | 25017 ft | 198 kts | 290° |
| 2026-04-27 20:17 | 13.38397 | -60.22119 | 25012 ft | 207 kts | 291° |
| 2026-04-27 20:17 | 13.38974 | -60.23482 | 25009 ft | 214 kts | 291° |
| 2026-04-27 20:17 | 13.39577 | -60.24905 | 25007 ft | 220 kts | 291° |
| 2026-04-27 20:18 | 13.40196 | -60.26367 | 25005 ft | 226 kts | 291° |
| 2026-04-27 20:18 | 13.40835 | -60.27874 | 25005 ft | 231 kts | 291° |
| 2026-04-27 20:18 | 13.41484 | -60.29409 | 25004 ft | 237 kts | 291° |
| 2026-04-27 20:18 | 13.42140 | -60.30958 | 25004 ft | 242 kts | 291° |
| 2026-04-27 20:19 | 13.42818 | -60.32561 | 25003 ft | 247 kts | 291° |
| 2026-04-27 20:19 | 13.43510 | -60.34200 | 25003 ft | 252 kts | 291° |
| 2026-04-27 20:19 | 13.44218 | -60.35876 | 25003 ft | 257 kts | 291° |
| 2026-04-27 20:19 | 13.44937 | -60.37578 | 25003 ft | 262 kts | 291° |
| 2026-04-27 20:20 | 13.45660 | -60.39290 | 25003 ft | 266 kts | 291° |
| 2026-04-27 20:20 | 13.46403 | -60.41050 | 25002 ft | 270 kts | 291° |
| 2026-04-27 20:20 | 13.47157 | -60.42835 | 25002 ft | 273 kts | 291° |
| 2026-04-27 20:20 | 13.47918 | -60.44638 | 25002 ft | 276 kts | 291° |
| 2026-04-27 20:21 | 13.48686 | -60.46458 | 25001 ft | 278 kts | 291° |
| 2026-04-27 20:21 | 13.49460 | -60.48292 | 25001 ft | 281 kts | 291° |
| 2026-04-27 20:21 | 13.50238 | -60.50137 | 25001 ft | 282 kts | 291° |
| 2026-04-27 20:21 | 13.51022 | -60.51998 | 25001 ft | 284 kts | 291° |
| 2026-04-27 20:22 | 13.51800 | -60.53844 | 25001 ft | 285 kts | 291° |
| 2026-04-27 20:22 | 13.52591 | -60.55721 | 25001 ft | 286 kts | 291° |
| 2026-04-27 20:22 | 13.53383 | -60.57602 | 25000 ft | 287 kts | 291° |
| 2026-04-27 20:22 | 13.54181 | -60.59497 | 25000 ft | 288 kts | 291° |
| 2026-04-27 20:23 | 13.54977 | -60.61389 | 25000 ft | 289 kts | 291° |
| 2026-04-27 20:23 | 13.55777 | -60.63291 | 25000 ft | 289 kts | 291° |
| 2026-04-27 20:23 | 13.56576 | -60.65191 | 25000 ft | 290 kts | 291° |
| 2026-04-27 20:23 | 13.57378 | -60.67097 | 25000 ft | 291 kts | 291° |
| 2026-04-27 20:24 | 13.58181 | -60.69008 | 25000 ft | 291 kts | 291° |
| 2026-04-27 20:24 | 13.58975 | -60.70897 | 25000 ft | 291 kts | 291° |
| 2026-04-27 20:24 | 13.59779 | -60.72813 | 25000 ft | 292 kts | 291° |
| 2026-04-27 20:24 | 13.60586 | -60.74734 | 25000 ft | 292 kts | 291° |
| 2026-04-27 20:25 | 13.61392 | -60.76653 | 25000 ft | 292 kts | 291° |
| 2026-04-27 20:25 | 13.62197 | -60.78572 | 25000 ft | 293 kts | 291° |
| 2026-04-27 20:25 | 13.63005 | -60.80497 | 25000 ft | 293 kts | 291° |
| 2026-04-27 20:25 | 13.63806 | -60.82408 | 25000 ft | 293 kts | 291° |
| 2026-04-27 20:26 | 13.64615 | -60.84336 | 25000 ft | 293 kts | 291° |
| 2026-04-27 20:26 | 13.65413 | -60.86239 | 25000 ft | 293 kts | 291° |
| 2026-04-27 20:26 | 13.66221 | -60.88166 | 25000 ft | 293 kts | 291° |
| 2026-04-27 20:26 | 13.67030 | -60.90099 | 25000 ft | 293 kts | 291° |
| 2026-04-27 20:27 | 13.67838 | -60.92027 | 25000 ft | 294 kts | 291° |
| 2026-04-27 20:27 | 13.68650 | -60.93967 | 25000 ft | 294 kts | 291° |
| 2026-04-27 20:27 | 13.69460 | -60.95901 | 25000 ft | 294 kts | 291° |
| 2026-04-27 20:27 | 13.70258 | -60.97807 | 25000 ft | 294 kts | 291° |
| 2026-04-27 20:28 | 13.71067 | -60.99742 | 25000 ft | 294 kts | 291° |
| 2026-04-27 20:28 | 13.71877 | -61.01678 | 25000 ft | 294 kts | 291° |
| 2026-04-27 20:28 | 13.72686 | -61.03611 | 25000 ft | 294 kts | 291° |
| 2026-04-27 20:28 | 13.73221 | -61.04892 | 25000 ft | 294 kts | 291° |
| 2026-04-27 20:29 | 13.74303 | -61.07479 | 25000 ft | 294 kts | 291° |
| 2026-04-27 20:29 | 13.75114 | -61.09419 | 25000 ft | 294 kts | 291° |
| 2026-04-27 20:29 | 13.75913 | -61.11333 | 25000 ft | 294 kts | 291° |
| 2026-04-27 20:29 | 13.76723 | -61.13270 | 25000 ft | 294 kts | 291° |
| 2026-04-27 20:30 | 13.77531 | -61.15208 | 25000 ft | 294 kts | 291° |
| 2026-04-27 20:30 | 13.78339 | -61.17142 | 25000 ft | 294 kts | 291° |
| 2026-04-27 20:30 | 13.79150 | -61.19086 | 25000 ft | 294 kts | 291° |
| 2026-04-27 20:30 | 13.79958 | -61.21022 | 25000 ft | 294 kts | 291° |
| 2026-04-27 20:31 | 13.80766 | -61.22958 | 25000 ft | 294 kts | 291° |
| 2026-04-27 20:31 | 13.81566 | -61.24876 | 25000 ft | 294 kts | 291° |
| 2026-04-27 20:31 | 13.82374 | -61.26814 | 25000 ft | 294 kts | 291° |
| 2026-04-27 20:31 | 13.83184 | -61.28758 | 25000 ft | 295 kts | 291° |
| 2026-04-27 20:32 | 13.83992 | -61.30697 | 25000 ft | 295 kts | 291° |
| 2026-04-27 20:32 | 13.84800 | -61.32636 | 25000 ft | 295 kts | 291° |
| 2026-04-27 20:32 | 13.85607 | -61.34574 | 25000 ft | 295 kts | 291° |
| 2026-04-27 20:32 | 13.86407 | -61.36495 | 25000 ft | 295 kts | 291° |
| 2026-04-27 20:33 | 13.87215 | -61.38435 | 25000 ft | 295 kts | 291° |
| 2026-04-27 20:33 | 13.88024 | -61.40381 | 25000 ft | 295 kts | 291° |
| 2026-04-27 20:33 | 13.88823 | -61.42301 | 25000 ft | 295 kts | 291° |
| 2026-04-27 20:33 | 13.89630 | -61.44241 | 25000 ft | 295 kts | 291° |
| 2026-04-27 20:34 | 13.90438 | -61.46183 | 25000 ft | 295 kts | 291° |
| 2026-04-27 20:34 | 13.91245 | -61.48125 | 25000 ft | 295 kts | 291° |
| 2026-04-27 20:34 | 13.92052 | -61.50067 | 25000 ft | 295 kts | 291° |
| 2026-04-27 20:34 | 13.92859 | -61.52009 | 25000 ft | 295 kts | 291° |
| 2026-04-27 20:35 | 13.93656 | -61.53927 | 25000 ft | 295 kts | 291° |
| 2026-04-27 20:35 | 13.94466 | -61.55877 | 25000 ft | 295 kts | 291° |
| 2026-04-27 20:35 | 13.95274 | -61.57824 | 25000 ft | 295 kts | 291° |
| 2026-04-27 20:35 | 13.96082 | -61.59770 | 25000 ft | 295 kts | 291° |
| 2026-04-27 20:36 | 13.96880 | -61.61693 | 25000 ft | 295 kts | 291° |
| 2026-04-27 20:36 | 13.97687 | -61.63639 | 25000 ft | 295 kts | 291° |
| 2026-04-27 20:36 | 13.98494 | -61.65584 | 25000 ft | 295 kts | 291° |
| 2026-04-27 20:36 | 13.99301 | -61.67531 | 25000 ft | 295 kts | 291° |
| 2026-04-27 20:37 | 14.00098 | -61.69453 | 25000 ft | 295 kts | 291° |
| 2026-04-27 20:37 | 14.00904 | -61.71398 | 25000 ft | 295 kts | 291° |
| 2026-04-27 20:37 | 14.01712 | -61.73346 | 25000 ft | 295 kts | 291° |
| 2026-04-27 20:37 | 14.02517 | -61.75291 | 25000 ft | 295 kts | 291° |
| 2026-04-27 20:38 | 14.03322 | -61.77236 | 25000 ft | 295 kts | 291° |
| 2026-04-27 20:38 | 14.04127 | -61.79179 | 25000 ft | 295 kts | 291° |
| 2026-04-27 20:38 | 14.04932 | -61.81123 | 25000 ft | 295 kts | 291° |
| 2026-04-27 20:38 | 14.05726 | -61.83042 | 25000 ft | 295 kts | 291° |
| 2026-04-27 20:39 | 14.06532 | -61.84991 | 25000 ft | 295 kts | 291° |
| 2026-04-27 20:39 | 14.07336 | -61.86936 | 25000 ft | 295 kts | 291° |
| 2026-04-27 20:39 | 14.08145 | -61.88891 | 25000 ft | 295 kts | 291° |
| 2026-04-27 20:39 | 14.08950 | -61.90839 | 25000 ft | 295 kts | 291° |
| 2026-04-27 20:40 | 14.09753 | -61.92782 | 25000 ft | 295 kts | 291° |
| 2026-04-27 20:40 | 14.10546 | -61.94703 | 25000 ft | 295 kts | 291° |
| 2026-04-27 20:40 | 14.11350 | -61.96648 | 25000 ft | 295 kts | 291° |
| 2026-04-27 20:40 | 14.12152 | -61.98591 | 25000 ft | 295 kts | 291° |
| 2026-04-27 20:41 | 14.12957 | -62.00541 | 25000 ft | 295 kts | 291° |
| 2026-04-27 20:41 | 14.13761 | -62.02489 | 25000 ft | 295 kts | 291° |
| 2026-04-27 20:41 | 14.14565 | -62.04436 | 25000 ft | 295 kts | 291° |
| 2026-04-27 20:41 | 14.15369 | -62.06386 | 25000 ft | 295 kts | 291° |
| 2026-04-27 20:42 | 14.16174 | -62.08338 | 25000 ft | 295 kts | 291° |
| 2026-04-27 20:42 | 14.16976 | -62.10285 | 25000 ft | 295 kts | 291° |
| 2026-04-27 20:42 | 14.17769 | -62.12209 | 25000 ft | 295 kts | 291° |
| 2026-04-27 20:42 | 14.18574 | -62.14162 | 25000 ft | 295 kts | 291° |
| 2026-04-27 20:43 | 14.19378 | -62.16113 | 25000 ft | 295 kts | 291° |
| 2026-04-27 20:43 | 14.20184 | -62.18070 | 25000 ft | 295 kts | 291° |
| 2026-04-27 20:43 | 14.20977 | -62.19998 | 25000 ft | 295 kts | 291° |
| 2026-04-27 20:43 | 14.21782 | -62.21953 | 25000 ft | 295 kts | 291° |
| 2026-04-27 20:44 | 14.22585 | -62.23905 | 25000 ft | 295 kts | 291° |
| 2026-04-27 20:44 | 14.23116 | -62.25195 | 25000 ft | 295 kts | 291° |
| 2026-04-27 20:44 | 14.23919 | -62.27148 | 25000 ft | 295 kts | 291° |
| 2026-04-27 20:44 | 14.24986 | -62.29742 | 25000 ft | 295 kts | 291° |
| 2026-04-27 20:45 | 14.25782 | -62.31680 | 25000 ft | 295 kts | 291° |
| 2026-04-27 20:45 | 14.26326 | -62.33003 | 25000 ft | 295 kts | 291° |
| 2026-04-27 20:45 | 14.27127 | -62.34951 | 25000 ft | 295 kts | 291° |
| 2026-04-27 20:45 | 14.27918 | -62.36878 | 25000 ft | 295 kts | 291° |
| 2026-04-27 20:46 | 14.28721 | -62.38832 | 25000 ft | 295 kts | 291° |
| 2026-04-27 20:46 | 14.29522 | -62.40785 | 25000 ft | 295 kts | 291° |
| 2026-04-27 20:46 | 14.30325 | -62.42740 | 25000 ft | 295 kts | 291° |
| 2026-04-27 20:46 | 14.31126 | -62.44694 | 25000 ft | 295 kts | 291° |
| 2026-04-27 20:47 | 14.31927 | -62.46646 | 25000 ft | 295 kts | 291° |
| 2026-04-27 20:47 | 14.32728 | -62.48599 | 25000 ft | 295 kts | 291° |
| 2026-04-27 20:47 | 14.33519 | -62.50527 | 25000 ft | 295 kts | 291° |
| 2026-04-27 20:47 | 14.34321 | -62.52486 | 25000 ft | 295 kts | 291° |
| 2026-04-27 20:48 | 14.35122 | -62.54441 | 25000 ft | 295 kts | 291° |
| 2026-04-27 20:48 | 14.35924 | -62.56397 | 25000 ft | 296 kts | 291° |
| 2026-04-27 20:48 | 14.36724 | -62.58351 | 25000 ft | 296 kts | 291° |
| 2026-04-27 20:48 | 14.37515 | -62.60283 | 25000 ft | 296 kts | 291° |
| 2026-04-27 20:49 | 14.38316 | -62.62240 | 25000 ft | 296 kts | 291° |
| 2026-04-27 20:49 | 14.39118 | -62.64199 | 25000 ft | 296 kts | 291° |
| 2026-04-27 20:49 | 14.39917 | -62.66153 | 25000 ft | 296 kts | 291° |
| 2026-04-27 20:49 | 14.40718 | -62.68111 | 25000 ft | 296 kts | 291° |
| 2026-04-27 20:50 | 14.41517 | -62.70066 | 25000 ft | 296 kts | 291° |
| 2026-04-27 20:50 | 14.42316 | -62.72019 | 25000 ft | 296 kts | 291° |
| 2026-04-27 20:50 | 14.43117 | -62.73980 | 25000 ft | 296 kts | 291° |
| 2026-04-27 20:50 | 14.43906 | -62.75912 | 25000 ft | 296 kts | 291° |
| 2026-04-27 20:51 | 14.44705 | -62.77868 | 25000 ft | 296 kts | 291° |
| 2026-04-27 20:51 | 14.45506 | -62.79830 | 25000 ft | 296 kts | 291° |
| 2026-04-27 20:51 | 14.46307 | -62.81793 | 25000 ft | 296 kts | 291° |
| 2026-04-27 20:51 | 14.47098 | -62.83730 | 25000 ft | 296 kts | 291° |
| 2026-04-27 20:52 | 14.47897 | -62.85689 | 25000 ft | 296 kts | 291° |
| 2026-04-27 20:52 | 14.48694 | -62.87644 | 25000 ft | 296 kts | 291° |
| 2026-04-27 20:52 | 14.49495 | -62.89607 | 25000 ft | 296 kts | 291° |
| 2026-04-27 20:52 | 14.50294 | -62.91568 | 25000 ft | 296 kts | 291° |
| 2026-04-27 20:53 | 14.51092 | -62.93526 | 25000 ft | 296 kts | 291° |
| 2026-04-27 20:53 | 14.51880 | -62.95459 | 25000 ft | 296 kts | 291° |
| 2026-04-27 20:53 | 14.52677 | -62.97418 | 25000 ft | 296 kts | 291° |
| 2026-04-27 20:53 | 14.53473 | -62.99373 | 25000 ft | 296 kts | 291° |
| 2026-04-27 20:54 | 14.55071 | -63.03298 | 25000 ft | 296 kts | 291° |
| 2026-04-27 20:54 | 14.55870 | -63.05261 | 25000 ft | 296 kts | 291° |
| 2026-04-27 20:54 | 14.56667 | -63.07220 | 25000 ft | 296 kts | 291° |
| 2026-04-27 20:55 | 14.57466 | -63.09187 | 25000 ft | 296 kts | 291° |
| 2026-04-27 20:55 | 14.58253 | -63.11122 | 25000 ft | 296 kts | 291° |
| 2026-04-27 20:55 | 14.59050 | -63.13084 | 25000 ft | 296 kts | 291° |
| 2026-04-27 20:55 | 14.59847 | -63.15045 | 25000 ft | 296 kts | 291° |
| 2026-04-27 20:56 | 14.60646 | -63.17011 | 25000 ft | 296 kts | 291° |
| 2026-04-27 20:56 | 14.61444 | -63.18977 | 25000 ft | 296 kts | 291° |
| 2026-04-27 20:56 | 14.62240 | -63.20937 | 25000 ft | 296 kts | 291° |
| 2026-04-27 20:56 | 14.63036 | -63.22899 | 25000 ft | 296 kts | 291° |
| 2026-04-27 20:57 | 14.63822 | -63.24837 | 25000 ft | 296 kts | 291° |
| 2026-04-27 20:57 | 14.64620 | -63.26805 | 25000 ft | 296 kts | 291° |
| 2026-04-27 20:57 | 14.65417 | -63.28771 | 25000 ft | 296 kts | 291° |
| 2026-04-27 20:57 | 14.66213 | -63.30732 | 25000 ft | 296 kts | 291° |
| 2026-04-27 20:58 | 14.67001 | -63.32678 | 25000 ft | 296 kts | 291° |
| 2026-04-27 20:58 | 14.67798 | -63.34644 | 25000 ft | 296 kts | 291° |
| 2026-04-27 20:58 | 14.68597 | -63.36617 | 25000 ft | 296 kts | 291° |
| 2026-04-27 20:58 | 14.69391 | -63.38577 | 25000 ft | 296 kts | 291° |
| 2026-04-27 20:59 | 14.70185 | -63.40541 | 25000 ft | 296 kts | 291° |
| 2026-04-27 20:59 | 14.70971 | -63.42482 | 25000 ft | 296 kts | 291° |
| 2026-04-27 20:59 | 14.71766 | -63.44447 | 25000 ft | 296 kts | 291° |
| 2026-04-27 20:59 | 14.72560 | -63.46410 | 25000 ft | 296 kts | 291° |
| 2026-04-27 21:00 | 14.73357 | -63.48380 | 25000 ft | 296 kts | 291° |
| 2026-04-27 21:00 | 14.74153 | -63.50350 | 25000 ft | 296 kts | 291° |
| 2026-04-27 21:00 | 14.74947 | -63.52314 | 25000 ft | 296 kts | 291° |
| 2026-04-27 21:00 | 14.75730 | -63.54254 | 25000 ft | 296 kts | 291° |
| 2026-04-27 21:01 | 14.76524 | -63.56218 | 25000 ft | 296 kts | 291° |
| 2026-04-27 21:01 | 14.77318 | -63.58186 | 25000 ft | 296 kts | 291° |
| 2026-04-27 21:01 | 14.78116 | -63.60162 | 25000 ft | 296 kts | 291° |
| 2026-04-27 21:01 | 14.78912 | -63.62135 | 25000 ft | 296 kts | 291° |
| 2026-04-27 21:02 | 14.79695 | -63.64075 | 25000 ft | 296 kts | 291° |
| 2026-04-27 21:02 | 14.80490 | -63.66046 | 25000 ft | 296 kts | 291° |
| 2026-04-27 21:02 | 14.81283 | -63.68014 | 25000 ft | 296 kts | 291° |
| 2026-04-27 21:02 | 14.82078 | -63.69985 | 25000 ft | 296 kts | 291° |
| 2026-04-27 21:03 | 14.82871 | -63.71954 | 25000 ft | 296 kts | 291° |
| 2026-04-27 21:03 | 14.83665 | -63.73924 | 25000 ft | 296 kts | 291° |
| 2026-04-27 21:03 | 14.84449 | -63.75871 | 25000 ft | 296 kts | 291° |
| 2026-04-27 21:03 | 14.85241 | -63.77837 | 25000 ft | 296 kts | 291° |
| 2026-04-27 21:04 | 14.86033 | -63.79807 | 25000 ft | 296 kts | 291° |
| 2026-04-27 21:04 | 14.86829 | -63.81783 | 25000 ft | 296 kts | 291° |
| 2026-04-27 21:04 | 14.87612 | -63.83729 | 25000 ft | 296 kts | 291° |
| 2026-04-27 21:04 | 14.88404 | -63.85700 | 25000 ft | 296 kts | 291° |
| 2026-04-27 21:05 | 14.89198 | -63.87674 | 25000 ft | 296 kts | 291° |
| 2026-04-27 21:05 | 14.89991 | -63.89646 | 25000 ft | 296 kts | 291° |
| 2026-04-27 21:05 | 14.90772 | -63.91592 | 25000 ft | 296 kts | 291° |
| 2026-04-27 21:05 | 14.91564 | -63.93564 | 25000 ft | 296 kts | 291° |
| 2026-04-27 21:06 | 14.92358 | -63.95540 | 25000 ft | 296 kts | 291° |
| 2026-04-27 21:06 | 14.93150 | -63.97514 | 25000 ft | 296 kts | 291° |
| 2026-04-27 21:06 | 14.93942 | -63.99487 | 25000 ft | 296 kts | 291° |
| 2026-04-27 21:06 | 14.94724 | -64.01436 | 25000 ft | 296 kts | 291° |
| 2026-04-27 21:07 | 14.95514 | -64.03405 | 25000 ft | 296 kts | 291° |
| 2026-04-27 21:07 | 14.96305 | -64.05379 | 25000 ft | 296 kts | 291° |
| 2026-04-27 21:07 | 14.97097 | -64.07356 | 25000 ft | 296 kts | 291° |
| 2026-04-27 21:07 | 14.97889 | -64.09331 | 25000 ft | 296 kts | 291° |
| 2026-04-27 21:08 | 14.98678 | -64.11275 | 25000 ft | 297 kts | 292° |
| 2026-04-27 21:08 | 14.99543 | -64.13221 | 25000 ft | 297 kts | 294° |
| 2026-04-27 21:08 | 15.00453 | -64.15143 | 25000 ft | 297 kts | 294° |
| 2026-04-27 21:08 | 15.01388 | -64.17052 | 25000 ft | 297 kts | 295° |
| 2026-04-27 21:09 | 15.02341 | -64.18963 | 25000 ft | 297 kts | 295° |
| 2026-04-27 21:09 | 15.03289 | -64.20844 | 25000 ft | 297 kts | 295° |
| 2026-04-27 21:09 | 15.04254 | -64.22742 | 25000 ft | 297 kts | 296° |
| 2026-04-27 21:09 | 15.05222 | -64.24639 | 25000 ft | 297 kts | 296° |
| 2026-04-27 21:10 | 15.06179 | -64.26510 | 25000 ft | 298 kts | 296° |
| 2026-04-27 21:10 | 15.07152 | -64.28407 | 25000 ft | 298 kts | 296° |
| 2026-04-27 21:10 | 15.08125 | -64.30300 | 25000 ft | 298 kts | 296° |
| 2026-04-27 21:10 | 15.09098 | -64.32193 | 25000 ft | 298 kts | 296° |
| 2026-04-27 21:11 | 15.10074 | -64.34090 | 25000 ft | 298 kts | 296° |
| 2026-04-27 21:11 | 15.11050 | -64.35986 | 25000 ft | 298 kts | 296° |
| 2026-04-27 21:11 | 15.12024 | -64.37879 | 25000 ft | 298 kts | 296° |
| 2026-04-27 21:11 | 15.12986 | -64.39747 | 25000 ft | 298 kts | 296° |
| 2026-04-27 21:12 | 15.13961 | -64.41641 | 25000 ft | 298 kts | 296° |
| 2026-04-27 21:12 | 15.14937 | -64.43535 | 25000 ft | 298 kts | 296° |
| 2026-04-27 21:12 | 15.15914 | -64.45434 | 25000 ft | 298 kts | 296° |
| 2026-04-27 21:12 | 15.16889 | -64.47328 | 25000 ft | 298 kts | 296° |
| 2026-04-27 21:13 | 15.17853 | -64.49202 | 25000 ft | 298 kts | 296° |
| 2026-04-27 21:13 | 15.18827 | -64.51095 | 25000 ft | 298 kts | 296° |
| 2026-04-27 21:13 | 15.19803 | -64.52993 | 25000 ft | 298 kts | 296° |
| 2026-04-27 21:13 | 15.20777 | -64.54886 | 25000 ft | 298 kts | 296° |
| 2026-04-27 21:14 | 15.21750 | -64.56779 | 25000 ft | 298 kts | 296° |
| 2026-04-27 21:14 | 15.22725 | -64.58674 | 25000 ft | 298 kts | 296° |
| 2026-04-27 21:14 | 15.23698 | -64.60568 | 25000 ft | 298 kts | 296° |
| 2026-04-27 21:14 | 15.24660 | -64.62440 | 25000 ft | 298 kts | 296° |
| 2026-04-27 21:15 | 15.25634 | -64.64337 | 25000 ft | 298 kts | 296° |
| 2026-04-27 21:15 | 15.26609 | -64.66236 | 25000 ft | 298 kts | 296° |
| 2026-04-27 21:15 | 15.27585 | -64.68136 | 25000 ft | 298 kts | 296° |
| 2026-04-27 21:15 | 15.28557 | -64.70031 | 25000 ft | 298 kts | 296° |
| 2026-04-27 21:16 | 15.29530 | -64.71926 | 25000 ft | 298 kts | 296° |
| 2026-04-27 21:16 | 15.30494 | -64.73805 | 25000 ft | 298 kts | 296° |
| 2026-04-27 21:16 | 15.31467 | -64.75703 | 25000 ft | 298 kts | 296° |
| 2026-04-27 21:16 | 15.32439 | -64.77599 | 25000 ft | 298 kts | 296° |
| 2026-04-27 21:17 | 15.33412 | -64.79496 | 25000 ft | 298 kts | 296° |
| 2026-04-27 21:17 | 15.34374 | -64.81373 | 25000 ft | 298 kts | 296° |
| 2026-04-27 21:17 | 15.35345 | -64.83269 | 25000 ft | 298 kts | 296° |
| 2026-04-27 21:17 | 15.36317 | -64.85167 | 25000 ft | 298 kts | 296° |
| 2026-04-27 21:18 | 15.37290 | -64.87067 | 25000 ft | 298 kts | 296° |
| 2026-04-27 21:18 | 15.38263 | -64.88968 | 25000 ft | 298 kts | 296° |
| 2026-04-27 21:18 | 15.39235 | -64.90865 | 25000 ft | 298 kts | 296° |
| 2026-04-27 21:18 | 15.40200 | -64.92751 | 25000 ft | 298 kts | 296° |
| 2026-04-27 21:19 | 15.41171 | -64.94650 | 25000 ft | 298 kts | 296° |
| 2026-04-27 21:19 | 15.42135 | -64.96535 | 25000 ft | 298 kts | 296° |
| 2026-04-27 21:19 | 15.43106 | -64.98434 | 25000 ft | 298 kts | 296° |
| 2026-04-27 21:20 | 15.45048 | -65.02235 | 25000 ft | 298 kts | 296° |
| 2026-04-27 21:20 | 15.46008 | -65.04114 | 25000 ft | 298 kts | 296° |
| 2026-04-27 21:20 | 15.46979 | -65.06015 | 25000 ft | 298 kts | 296° |
| 2026-04-27 21:20 | 15.47948 | -65.07913 | 25000 ft | 298 kts | 296° |
| 2026-04-27 21:21 | 15.48919 | -65.09813 | 25000 ft | 298 kts | 296° |
| 2026-04-27 21:21 | 15.49891 | -65.11719 | 25000 ft | 298 kts | 296° |
| 2026-04-27 21:21 | 15.50852 | -65.13602 | 25000 ft | 298 kts | 296° |
| 2026-04-27 21:21 | 15.51827 | -65.15513 | 25000 ft | 298 kts | 296° |
| 2026-04-27 21:22 | 15.52794 | -65.17411 | 25000 ft | 298 kts | 296° |
| 2026-04-27 21:22 | 15.53756 | -65.19298 | 25000 ft | 298 kts | 296° |
| 2026-04-27 21:22 | 15.54725 | -65.21198 | 25000 ft | 298 kts | 296° |
| 2026-04-27 21:22 | 15.55692 | -65.23097 | 25000 ft | 298 kts | 296° |
| 2026-04-27 21:23 | 15.56663 | -65.25002 | 25000 ft | 298 kts | 296° |
| 2026-04-27 21:23 | 15.57632 | -65.26905 | 25000 ft | 298 kts | 296° |
| 2026-04-27 21:23 | 15.58602 | -65.28811 | 25000 ft | 298 kts | 296° |
| 2026-04-27 21:23 | 15.59570 | -65.30714 | 25000 ft | 298 kts | 296° |
| 2026-04-27 21:24 | 15.60538 | -65.32616 | 25000 ft | 298 kts | 296° |
| 2026-04-27 21:24 | 15.61507 | -65.34521 | 25000 ft | 298 kts | 296° |
| 2026-04-27 21:24 | 15.62462 | -65.36399 | 25000 ft | 298 kts | 296° |
| 2026-04-27 21:24 | 15.63433 | -65.38308 | 25000 ft | 298 kts | 296° |
| 2026-04-27 21:25 | 15.64402 | -65.40214 | 25000 ft | 298 kts | 296° |
| 2026-04-27 21:25 | 15.65369 | -65.42118 | 25000 ft | 298 kts | 296° |
| 2026-04-27 21:25 | 15.66336 | -65.44022 | 25000 ft | 298 kts | 296° |
| 2026-04-27 21:25 | 15.67243 | -65.45951 | 24997 ft | 297 kts | 288° |
| 2026-04-27 21:26 | 15.67414 | -65.48049 | 24997 ft | 294 kts | 262° |
| 2026-04-27 21:26 | 15.66798 | -65.50078 | 25004 ft | 296 kts | 248° |
| 2026-04-27 21:26 | 15.65849 | -65.51951 | 25003 ft | 297 kts | 242° |
| 2026-04-27 21:26 | 15.64736 | -65.53763 | 25002 ft | 298 kts | 238° |
| 2026-04-27 21:27 | 15.63548 | -65.55533 | 25001 ft | 299 kts | 237° |
| 2026-04-27 21:27 | 15.62320 | -65.57285 | 25000 ft | 299 kts | 236° |
| 2026-04-27 21:27 | 15.61087 | -65.59001 | 25000 ft | 299 kts | 236° |
| 2026-04-27 21:27 | 15.59830 | -65.60728 | 25000 ft | 300 kts | 235° |
| 2026-04-27 21:28 | 15.58564 | -65.62453 | 25000 ft | 300 kts | 235° |
| 2026-04-27 21:28 | 15.57296 | -65.64172 | 25000 ft | 300 kts | 235° |
| 2026-04-27 21:28 | 15.56025 | -65.65889 | 25000 ft | 300 kts | 235° |
| 2026-04-27 21:28 | 15.54748 | -65.67609 | 25000 ft | 300 kts | 235° |
| 2026-04-27 21:29 | 15.53489 | -65.69302 | 25000 ft | 300 kts | 235° |
| 2026-04-27 21:29 | 15.52210 | -65.71020 | 25000 ft | 300 kts | 235° |
| 2026-04-27 21:29 | 15.50931 | -65.72734 | 25000 ft | 300 kts | 235° |
| 2026-04-27 21:29 | 15.49650 | -65.74451 | 25000 ft | 300 kts | 235° |
| 2026-04-27 21:30 | 15.48385 | -65.76144 | 25000 ft | 300 kts | 235° |
| 2026-04-27 21:30 | 15.47106 | -65.77855 | 25000 ft | 300 kts | 235° |
| 2026-04-27 21:30 | 15.45820 | -65.79575 | 25000 ft | 300 kts | 235° |
| 2026-04-27 21:30 | 15.44536 | -65.81291 | 25000 ft | 300 kts | 235° |
| 2026-04-27 21:31 | 15.43685 | -65.82429 | 25000 ft | 300 kts | 235° |
| 2026-04-27 21:31 | 15.42404 | -65.84139 | 25000 ft | 300 kts | 235° |
| 2026-04-27 21:31 | 15.40704 | -65.86409 | 25000 ft | 300 kts | 235° |
| 2026-04-27 21:31 | 15.39423 | -65.88120 | 25000 ft | 300 kts | 235° |
| 2026-04-27 21:32 | 15.38567 | -65.89262 | 25000 ft | 300 kts | 235° |
| 2026-04-27 21:32 | 15.37281 | -65.90976 | 25000 ft | 300 kts | 235° |
| 2026-04-27 21:32 | 15.35996 | -65.92690 | 25000 ft | 300 kts | 235° |
| 2026-04-27 21:32 | 15.34712 | -65.94403 | 25000 ft | 300 kts | 235° |
| 2026-04-27 21:33 | 15.33444 | -65.96093 | 25000 ft | 300 kts | 235° |
| 2026-04-27 21:33 | 15.32157 | -65.97808 | 25000 ft | 300 kts | 235° |
| 2026-04-27 21:33 | 15.30874 | -65.99518 | 25000 ft | 300 kts | 235° |
| 2026-04-27 21:33 | 15.29588 | -66.01231 | 25000 ft | 300 kts | 235° |
| 2026-04-27 21:34 | 15.28302 | -66.02943 | 25000 ft | 300 kts | 235° |
| 2026-04-27 21:34 | 15.27035 | -66.04630 | 25000 ft | 301 kts | 235° |
| 2026-04-27 21:34 | 15.25750 | -66.06341 | 25000 ft | 301 kts | 235° |
| 2026-04-27 21:34 | 15.24462 | -66.08055 | 25000 ft | 301 kts | 235° |
| 2026-04-27 21:35 | 15.23175 | -66.09768 | 25000 ft | 301 kts | 235° |
| 2026-04-27 21:35 | 15.21888 | -66.11480 | 25000 ft | 301 kts | 235° |
| 2026-04-27 21:35 | 15.20602 | -66.13190 | 25000 ft | 301 kts | 235° |
| 2026-04-27 21:35 | 15.19335 | -66.14875 | 25000 ft | 301 kts | 235° |
| 2026-04-27 21:36 | 15.18044 | -66.16591 | 25000 ft | 301 kts | 235° |
| 2026-04-27 21:36 | 15.16759 | -66.18299 | 25000 ft | 301 kts | 234° |
| 2026-04-27 21:36 | 15.15471 | -66.20010 | 25000 ft | 301 kts | 234° |
| 2026-04-27 21:36 | 15.14185 | -66.21718 | 25000 ft | 301 kts | 234° |
| 2026-04-27 21:37 | 15.12896 | -66.23430 | 25000 ft | 301 kts | 234° |
| 2026-04-27 21:37 | 15.11625 | -66.25118 | 25000 ft | 301 kts | 234° |
| 2026-04-27 21:37 | 15.10340 | -66.26824 | 25000 ft | 301 kts | 234° |
| 2026-04-27 21:37 | 15.09052 | -66.28534 | 25000 ft | 301 kts | 234° |
| 2026-04-27 21:38 | 15.07760 | -66.30248 | 25000 ft | 301 kts | 234° |
| 2026-04-27 21:38 | 15.06470 | -66.31960 | 25000 ft | 301 kts | 234° |
| 2026-04-27 21:38 | 15.05203 | -66.33657 | 24999 ft | 300 kts | 237° |
| 2026-04-27 21:38 | 15.04395 | -66.35611 | 24995 ft | 295 kts | 262° |
| 2026-04-27 21:39 | 15.04595 | -66.37695 | 24998 ft | 295 kts | 288° |
| 2026-04-27 21:39 | 15.05731 | -66.39468 | 25004 ft | 299 kts | 310° |
| 2026-04-27 21:39 | 15.07286 | -66.40888 | 25005 ft | 302 kts | 318° |
| 2026-04-27 21:39 | 15.08983 | -66.42191 | 25003 ft | 304 kts | 321° |
| 2026-04-27 21:40 | 15.10721 | -66.43451 | 25001 ft | 304 kts | 321° |
| 2026-04-27 21:40 | 15.12468 | -66.44704 | 25000 ft | 305 kts | 321° |
| 2026-04-27 21:40 | 15.14214 | -66.45960 | 25000 ft | 305 kts | 321° |
| 2026-04-27 21:40 | 15.15926 | -66.47204 | 25000 ft | 305 kts | 321° |
| 2026-04-27 21:41 | 15.17659 | -66.48477 | 25000 ft | 305 kts | 321° |
| 2026-04-27 21:41 | 15.19383 | -66.49761 | 25000 ft | 305 kts | 320° |
| 2026-04-27 21:41 | 15.21103 | -66.51059 | 25000 ft | 305 kts | 320° |
| 2026-04-27 21:41 | 15.22813 | -66.52366 | 25000 ft | 305 kts | 320° |
| 2026-04-27 21:42 | 15.24512 | -66.53684 | 25000 ft | 305 kts | 319° |
| 2026-04-27 21:42 | 15.26200 | -66.55012 | 25000 ft | 305 kts | 319° |
| 2026-04-27 21:42 | 15.27862 | -66.56337 | 25000 ft | 305 kts | 319° |
| 2026-04-27 21:42 | 15.29535 | -66.57690 | 25000 ft | 305 kts | 318° |
| 2026-04-27 21:43 | 15.31201 | -66.59058 | 25000 ft | 305 kts | 318° |
| 2026-04-27 21:43 | 15.32856 | -66.60436 | 25000 ft | 304 kts | 317° |
| 2026-04-27 21:43 | 15.34479 | -66.61809 | 25000 ft | 304 kts | 317° |
| 2026-04-27 21:43 | 15.36108 | -66.63208 | 25000 ft | 304 kts | 316° |
| 2026-04-27 21:44 | 15.37732 | -66.64624 | 25000 ft | 304 kts | 316° |
| 2026-04-27 21:44 | 15.39346 | -66.66055 | 25000 ft | 304 kts | 316° |
| 2026-04-27 21:44 | 15.40945 | -66.67495 | 25000 ft | 304 kts | 315° |
| 2026-04-27 21:44 | 15.42531 | -66.68947 | 25000 ft | 304 kts | 315° |
| 2026-04-27 21:45 | 15.44082 | -66.70391 | 25000 ft | 304 kts | 314° |
| 2026-04-27 21:45 | 15.45643 | -66.71869 | 25000 ft | 303 kts | 314° |
| 2026-04-27 21:45 | 15.47190 | -66.73360 | 25000 ft | 303 kts | 313° |
| 2026-04-27 21:45 | 15.48725 | -66.74866 | 25000 ft | 303 kts | 313° |
| 2026-04-27 21:46 | 15.50244 | -66.76385 | 25000 ft | 303 kts | 313° |
| 2026-04-27 21:46 | 15.51754 | -66.77922 | 25000 ft | 303 kts | 312° |
| 2026-04-27 21:46 | 15.53242 | -66.79466 | 25000 ft | 303 kts | 311° |
| 2026-04-27 21:46 | 15.54705 | -66.81015 | 25000 ft | 303 kts | 311° |
| 2026-04-27 21:47 | 15.56165 | -66.82592 | 25000 ft | 302 kts | 310° |
| 2026-04-27 21:47 | 15.57611 | -66.84186 | 25000 ft | 302 kts | 310° |
| 2026-04-27 21:47 | 15.59021 | -66.85775 | 25000 ft | 302 kts | 309° |
| 2026-04-27 21:47 | 15.60428 | -66.87395 | 25000 ft | 302 kts | 309° |
| 2026-04-27 21:48 | 15.61816 | -66.89030 | 25000 ft | 302 kts | 308° |
| 2026-04-27 21:48 | 15.63183 | -66.90679 | 25000 ft | 302 kts | 307° |
| 2026-04-27 21:48 | 15.64533 | -66.92346 | 25000 ft | 301 kts | 307° |
| 2026-04-27 21:48 | 15.65865 | -66.94035 | 25000 ft | 301 kts | 306° |
| 2026-04-27 21:49 | 15.67166 | -66.95746 | 25000 ft | 301 kts | 304° |
| 2026-04-27 21:49 | 15.68374 | -66.97519 | 25000 ft | 300 kts | 301° |
| 2026-04-27 21:49 | 15.69445 | -66.99352 | 25000 ft | 299 kts | 297° |
| 2026-04-27 21:49 | 15.70400 | -67.01268 | 25000 ft | 298 kts | 294° |
| 2026-04-27 21:50 | 15.71247 | -67.03242 | 25000 ft | 298 kts | 291° |
| 2026-04-27 21:50 | 15.71992 | -67.05220 | 25000 ft | 297 kts | 289° |
| 2026-04-27 21:50 | 15.72678 | -67.07248 | 25000 ft | 297 kts | 287° |
| 2026-04-27 21:50 | 15.73310 | -67.09290 | 25000 ft | 297 kts | 286° |
| 2026-04-27 21:51 | 15.73905 | -67.11349 | 25000 ft | 297 kts | 285° |
| 2026-04-27 21:51 | 15.74473 | -67.13416 | 25000 ft | 297 kts | 284° |
| 2026-04-27 21:51 | 15.75020 | -67.15488 | 25000 ft | 297 kts | 284° |
| 2026-04-27 21:51 | 15.75546 | -67.17537 | 25000 ft | 297 kts | 283° |
| 2026-04-27 21:52 | 15.76068 | -67.19607 | 25000 ft | 297 kts | 283° |
| 2026-04-27 21:52 | 15.76584 | -67.21687 | 25000 ft | 297 kts | 283° |
| 2026-04-27 21:52 | 15.77096 | -67.23767 | 25000 ft | 297 kts | 283° |
| 2026-04-27 21:52 | 15.77604 | -67.25847 | 25000 ft | 297 kts | 283° |
| 2026-04-27 21:53 | 15.78105 | -67.27908 | 25000 ft | 297 kts | 283° |
| 2026-04-27 21:53 | 15.78609 | -67.29986 | 25000 ft | 297 kts | 283° |
| 2026-04-27 21:53 | 15.79114 | -67.32077 | 25000 ft | 297 kts | 283° |
| 2026-04-27 21:53 | 15.79616 | -67.34155 | 25000 ft | 297 kts | 283° |
| 2026-04-27 21:54 | 15.80117 | -67.36234 | 25000 ft | 297 kts | 283° |
| 2026-04-27 21:54 | 15.80619 | -67.38317 | 25000 ft | 297 kts | 283° |
| 2026-04-27 21:54 | 15.81115 | -67.40377 | 25000 ft | 297 kts | 283° |
| 2026-04-27 21:54 | 15.81615 | -67.42458 | 25000 ft | 297 kts | 283° |
| 2026-04-27 21:55 | 15.82116 | -67.44540 | 25000 ft | 297 kts | 283° |
| 2026-04-27 21:55 | 15.82567 | -67.46637 | 24997 ft | 296 kts | 276° |
| 2026-04-27 21:55 | 15.82288 | -67.48735 | 24996 ft | 297 kts | 250° |
| 2026-04-27 21:55 | 15.81076 | -67.50466 | 25002 ft | 302 kts | 226° |
| 2026-04-27 21:56 | 15.79373 | -67.51765 | 25004 ft | 306 kts | 215° |
| 2026-04-27 21:56 | 15.75562 | -67.53791 | 25001 ft | 309 kts | 208° |
| 2026-04-27 21:56 | 15.73620 | -67.54695 | 25000 ft | 309 kts | 208° |
| 2026-04-27 21:57 | 15.71642 | -67.55594 | 25000 ft | 310 kts | 207° |
| 2026-04-27 21:57 | 15.69661 | -67.56488 | 25000 ft | 310 kts | 207° |
| 2026-04-27 21:57 | 15.67682 | -67.57383 | 25000 ft | 310 kts | 207° |
| 2026-04-27 21:57 | 15.65724 | -67.58273 | 25000 ft | 310 kts | 208° |
| 2026-04-27 21:58 | 15.63738 | -67.59178 | 25000 ft | 310 kts | 208° |
| 2026-04-27 21:58 | 15.61758 | -67.60085 | 25000 ft | 310 kts | 208° |
| 2026-04-27 21:58 | 15.59784 | -67.60992 | 25000 ft | 310 kts | 208° |
| 2026-04-27 21:58 | 15.57831 | -67.61891 | 25000 ft | 310 kts | 208° |
| 2026-04-27 21:59 | 15.55851 | -67.62805 | 25000 ft | 310 kts | 208° |
| 2026-04-27 21:59 | 15.53877 | -67.63718 | 25000 ft | 310 kts | 208° |
| 2026-04-27 21:59 | 15.51895 | -67.64635 | 25000 ft | 310 kts | 208° |
| 2026-04-27 21:59 | 15.49923 | -67.65549 | 25000 ft | 310 kts | 208° |
| 2026-04-27 22:00 | 15.47975 | -67.66451 | 25000 ft | 310 kts | 208° |
| 2026-04-27 22:00 | 15.45999 | -67.67368 | 25000 ft | 310 kts | 208° |
| 2026-04-27 22:00 | 15.44022 | -67.68284 | 25000 ft | 310 kts | 208° |
| 2026-04-27 22:00 | 15.42046 | -67.69201 | 25000 ft | 310 kts | 208° |
| 2026-04-27 22:01 | 15.40071 | -67.70117 | 25000 ft | 310 kts | 208° |
| 2026-04-27 22:01 | 15.38102 | -67.71031 | 25000 ft | 310 kts | 208° |
| 2026-04-27 22:01 | 15.36149 | -67.71936 | 25000 ft | 310 kts | 208° |
| 2026-04-27 22:01 | 15.34176 | -67.72852 | 25000 ft | 310 kts | 208° |
| 2026-04-27 22:02 | 15.32201 | -67.73768 | 25000 ft | 310 kts | 208° |
| 2026-04-27 22:02 | 15.30230 | -67.74682 | 25000 ft | 310 kts | 208° |
| 2026-04-27 22:02 | 15.28251 | -67.75599 | 25000 ft | 310 kts | 208° |
| 2026-04-27 22:02 | 15.26276 | -67.76514 | 25000 ft | 310 kts | 208° |
| 2026-04-27 22:03 | 15.24330 | -67.77417 | 25000 ft | 310 kts | 208° |
| 2026-04-27 22:03 | 15.22353 | -67.78333 | 25000 ft | 310 kts | 208° |
| 2026-04-27 22:03 | 15.20381 | -67.79246 | 25000 ft | 310 kts | 208° |
| 2026-04-27 22:03 | 15.18402 | -67.80163 | 25000 ft | 310 kts | 208° |
| 2026-04-27 22:04 | 15.16445 | -67.81070 | 25000 ft | 310 kts | 208° |
| 2026-04-27 22:04 | 15.14467 | -67.81985 | 25000 ft | 310 kts | 208° |
| 2026-04-27 22:04 | 15.12494 | -67.82899 | 25000 ft | 310 kts | 208° |
| 2026-04-27 22:04 | 15.10522 | -67.83812 | 25000 ft | 311 kts | 208° |
| 2026-04-27 22:05 | 15.08540 | -67.84729 | 25000 ft | 311 kts | 208° |
| 2026-04-27 22:05 | 15.06562 | -67.85644 | 25000 ft | 311 kts | 208° |
| 2026-04-27 22:05 | 15.04593 | -67.86555 | 25000 ft | 311 kts | 208° |
| 2026-04-27 22:05 | 15.02640 | -67.87458 | 25000 ft | 311 kts | 208° |
| 2026-04-27 22:06 | 15.00664 | -67.88372 | 25000 ft | 311 kts | 208° |
| 2026-04-27 22:06 | 14.98687 | -67.89286 | 25000 ft | 311 kts | 208° |
| 2026-04-27 22:06 | 14.96711 | -67.90199 | 25000 ft | 311 kts | 208° |
| 2026-04-27 22:06 | 14.94737 | -67.91111 | 25000 ft | 311 kts | 208° |
| 2026-04-27 22:07 | 14.92783 | -67.92014 | 25000 ft | 311 kts | 208° |
| 2026-04-27 22:07 | 14.90804 | -67.92928 | 25000 ft | 311 kts | 208° |
| 2026-04-27 22:07 | 14.88829 | -67.93840 | 25000 ft | 311 kts | 208° |
| 2026-04-27 22:07 | 14.86847 | -67.94756 | 25000 ft | 311 kts | 208° |
| 2026-04-27 22:08 | 14.84873 | -67.95667 | 25000 ft | 311 kts | 208° |
| 2026-04-27 22:08 | 14.82895 | -67.96580 | 25000 ft | 311 kts | 208° |
| 2026-04-27 22:08 | 14.80941 | -67.97481 | 25000 ft | 311 kts | 208° |
| 2026-04-27 22:08 | 14.78965 | -67.98393 | 25000 ft | 311 kts | 208° |
| 2026-04-27 22:09 | 14.76986 | -67.99306 | 25000 ft | 311 kts | 208° |
| 2026-04-27 22:09 | 14.75014 | -68.00216 | 25000 ft | 311 kts | 208° |
| 2026-04-27 22:09 | 14.73034 | -68.01129 | 25000 ft | 311 kts | 208° |
| 2026-04-27 22:09 | 14.71056 | -68.02041 | 25000 ft | 311 kts | 208° |
| 2026-04-27 22:10 | 14.69104 | -68.02940 | 25000 ft | 311 kts | 208° |
| 2026-04-27 22:10 | 14.67791 | -68.03545 | 25000 ft | 311 kts | 208° |
| 2026-04-27 22:10 | 14.65144 | -68.04765 | 25000 ft | 311 kts | 208° |
| 2026-04-27 22:10 | 14.63168 | -68.05675 | 25000 ft | 311 kts | 208° |
| 2026-04-27 22:11 | 14.61215 | -68.06575 | 25000 ft | 311 kts | 208° |
| 2026-04-27 22:11 | 14.59236 | -68.07486 | 25000 ft | 311 kts | 208° |
| 2026-04-27 22:11 | 14.57259 | -68.08396 | 25000 ft | 311 kts | 208° |
| 2026-04-27 22:11 | 14.55284 | -68.09305 | 25000 ft | 311 kts | 208° |
| 2026-04-27 22:12 | 14.53306 | -68.10216 | 25000 ft | 311 kts | 208° |
| 2026-04-27 22:12 | 14.51328 | -68.11126 | 25000 ft | 311 kts | 208° |
| 2026-04-27 22:12 | 14.49352 | -68.12035 | 25000 ft | 311 kts | 208° |
| 2026-04-27 22:12 | 14.47397 | -68.12933 | 25000 ft | 311 kts | 208° |
| 2026-04-27 22:13 | 14.45397 | -68.13853 | 25000 ft | 311 kts | 208° |
| 2026-04-27 22:13 | 14.43448 | -68.14749 | 25000 ft | 311 kts | 208° |
| 2026-04-27 22:13 | 14.41471 | -68.15658 | 25000 ft | 311 kts | 208° |
| 2026-04-27 22:13 | 14.39494 | -68.16567 | 25000 ft | 311 kts | 208° |
| 2026-04-27 22:14 | 14.37517 | -68.17475 | 25000 ft | 311 kts | 208° |
| 2026-04-27 22:14 | 14.35535 | -68.18385 | 25000 ft | 311 kts | 208° |
| 2026-04-27 22:14 | 14.33559 | -68.19293 | 25000 ft | 311 kts | 208° |
| 2026-04-27 22:14 | 14.31574 | -68.20204 | 25000 ft | 311 kts | 208° |
| 2026-04-27 22:15 | 14.29621 | -68.21101 | 25000 ft | 311 kts | 208° |
| 2026-04-27 22:15 | 14.27644 | -68.22009 | 25000 ft | 311 kts | 208° |
| 2026-04-27 22:15 | 14.25667 | -68.22916 | 25000 ft | 311 kts | 208° |
| 2026-04-27 22:15 | 14.23688 | -68.23824 | 25000 ft | 311 kts | 208° |
| 2026-04-27 22:16 | 14.21707 | -68.24733 | 25000 ft | 311 kts | 208° |
| 2026-04-27 22:16 | 14.19728 | -68.25641 | 25000 ft | 311 kts | 208° |
| 2026-04-27 22:16 | 14.17753 | -68.26546 | 25000 ft | 311 kts | 208° |
| 2026-04-27 22:16 | 14.15794 | -68.27444 | 25000 ft | 311 kts | 208° |
| 2026-04-27 22:17 | 14.13811 | -68.28354 | 25000 ft | 311 kts | 208° |
| 2026-04-27 22:17 | 14.11827 | -68.29263 | 25000 ft | 311 kts | 208° |
| 2026-04-27 22:17 | 14.10513 | -68.29865 | 25000 ft | 311 kts | 208° |
| 2026-04-27 22:17 | 14.08533 | -68.30772 | 25000 ft | 311 kts | 208° |
| 2026-04-27 22:18 | 14.06555 | -68.31678 | 25000 ft | 311 kts | 208° |
| 2026-04-27 22:18 | 14.04583 | -68.32582 | 25000 ft | 311 kts | 208° |
| 2026-04-27 22:18 | 14.02595 | -68.33492 | 25000 ft | 311 kts | 208° |